createdAt,value
2023-01-23T00:01:34.900Z,89.09
2023-01-23T00:04:04.593Z,89.50
2023-01-23T00:06:31.532Z,89.10
2023-01-23T00:08:58.588Z,88.43
2023-01-23T00:11:28.863Z,88.36
2023-01-23T00:13:57.156Z,88.46
2023-01-23T00:16:28.996Z,88.04
2023-01-23T00:18:57.236Z,87.62
2023-01-23T00:21:26.052Z,87.77
2023-01-23T00:23:56.972Z,87.57
2023-01-23T00:26:27.016Z,87.31
2023-01-23T00:28:55.493Z,87.16
2023-01-23T00:31:25.227Z,87.04
2023-01-23T00:33:56.759Z,86.95
2023-01-23T00:36:27.567Z,86.86
2023-01-23T00:38:56.118Z,86.79
2023-01-23T00:41:23.280Z,86.74
2023-01-23T00:43:50.112Z,86.98
2023-01-23T00:46:19.085Z,86.70
2023-01-23T00:48:46.024Z,86.62
2023-01-23T00:51:14.500Z,86.42
2023-01-23T00:53:42.173Z,86.55
2023-01-23T00:56:09.426Z,86.07
2023-01-23T00:58:36.730Z,86.47
2023-01-23T01:01:04.113Z,86.32
2023-01-23T01:03:32.266Z,85.90
2023-01-23T01:05:59.097Z,85.79
2023-01-23T01:08:29.427Z,85.96
2023-01-23T01:10:58.173Z,86.35
2023-01-23T01:13:25.666Z,86.43
2023-01-23T01:15:53.614Z,86.66
2023-01-23T01:18:22.384Z,86.65
2023-01-23T01:20:50.268Z,87.09
2023-01-23T01:23:17.297Z,86.75
2023-01-23T01:25:46.305Z,86.70
2023-01-23T01:28:13.999Z,87.21
2023-01-23T01:30:41.792Z,86.93
2023-01-23T01:33:08.985Z,87.08
2023-01-23T01:35:35.829Z,86.70
2023-01-23T01:38:02.645Z,86.59
2023-01-23T01:40:35.373Z,86.26
2023-01-23T01:43:07.530Z,86.22
2023-01-23T01:46:18.294Z,86.63
2023-01-23T01:48:56.372Z,86.90
2023-01-23T01:51:30.727Z,86.49
2023-01-23T01:54:07.509Z,87.49
2023-01-23T01:56:43.047Z,87.08
2023-01-23T01:59:14.116Z,87.46
2023-01-23T02:01:47.261Z,87.54
2023-01-23T02:04:14.540Z,88.28
2023-01-23T02:06:41.553Z,89.02
2023-01-23T02:09:17.154Z,89.04
2023-01-23T02:11:45.335Z,89.13
2023-01-23T02:14:13.489Z,88.95
2023-01-23T02:16:44.462Z,89.06
2023-01-23T02:19:27.902Z,88.51
2023-01-23T02:22:07.548Z,88.48
2023-01-23T02:24:41.810Z,88.81
2023-01-23T02:27:10.197Z,88.65
2023-01-23T02:29:43.260Z,88.11
2023-01-23T02:32:10.761Z,88.46
2023-01-23T02:34:38.111Z,88.53
2023-01-23T02:37:08.621Z,87.64
2023-01-23T02:39:35.677Z,87.67
2023-01-23T02:42:03.411Z,87.71
2023-01-23T02:44:43.681Z,86.74
2023-01-23T02:47:11.922Z,86.62
2023-01-23T02:49:39.388Z,86.11
2023-01-23T02:52:07.531Z,86.26
2023-01-23T02:54:35.939Z,86.39
2023-01-23T02:57:02.929Z,86.26
2023-01-23T02:59:30.775Z,85.70
2023-01-23T03:01:59.053Z,85.93
2023-01-23T03:04:26.326Z,86.53
2023-01-23T03:06:53.277Z,85.97
2023-01-23T03:09:20.099Z,86.38
2023-01-23T03:11:47.342Z,86.50
2023-01-23T03:14:18.175Z,86.23
2023-01-23T03:16:46.195Z,85.88
2023-01-23T03:19:14.490Z,86.08
2023-01-23T03:21:41.368Z,86.00
2023-01-23T03:24:13.213Z,86.25
2023-01-23T03:26:41.789Z,85.67
2023-01-23T03:29:14.792Z,85.51
2023-01-23T03:31:42.282Z,86.25
2023-01-23T03:34:09.111Z,85.96
2023-01-23T03:36:37.505Z,86.34
2023-01-23T03:39:05.740Z,86.87
2023-01-23T03:41:32.884Z,87.55
2023-01-23T03:44:03.232Z,87.52
2023-01-23T03:46:30.851Z,87.47
2023-01-23T03:48:57.682Z,87.62
2023-01-23T03:51:24.568Z,88.36
2023-01-23T03:53:53.062Z,88.01
2023-01-23T03:56:19.853Z,88.12
2023-01-23T03:58:46.639Z,88.22
2023-01-23T04:01:13.724Z,88.03
2023-01-23T04:03:42.653Z,88.30
2023-01-23T04:06:11.895Z,88.73
2023-01-23T04:08:39.265Z,88.38
2023-01-23T04:11:10.290Z,88.20
2023-01-23T04:13:38.381Z,87.92
2023-01-23T04:16:07.338Z,87.31
2023-01-23T04:18:35.220Z,87.03
2023-01-23T04:21:02.452Z,87.39
2023-01-23T04:23:30.504Z,86.77
2023-01-23T04:25:58.215Z,87.16
2023-01-23T04:28:26.399Z,87.77
2023-01-23T04:30:54.337Z,87.69
2023-01-23T04:33:27.793Z,87.83
2023-01-23T04:35:57.645Z,87.75
2023-01-23T04:38:28.582Z,87.30
2023-01-23T04:40:56.272Z,87.40
2023-01-23T04:43:23.248Z,87.92
2023-01-23T04:45:55.700Z,87.82
2023-01-23T04:48:41.297Z,87.29
2023-01-23T04:51:09.750Z,87.71
2023-01-23T04:53:37.287Z,87.46
2023-01-23T04:56:05.756Z,87.04
2023-01-23T04:58:33.096Z,87.64
2023-01-23T05:01:05.656Z,87.54
2023-01-23T05:03:34.508Z,87.54
2023-01-23T05:06:01.487Z,87.24
2023-01-23T05:08:28.399Z,86.87
2023-01-23T05:11:08.725Z,87.20
2023-01-23T05:13:35.609Z,86.90
2023-01-23T05:16:04.340Z,86.38
2023-01-23T05:18:42.432Z,86.15
2023-01-23T05:21:09.346Z,86.17
2023-01-23T05:23:36.211Z,86.15
2023-01-23T05:26:03.158Z,86.10
2023-01-23T05:28:31.178Z,86.26
2023-01-23T05:30:59.033Z,85.63
2023-01-23T05:33:35.994Z,85.93
2023-01-23T05:36:06.198Z,85.38
2023-01-23T05:38:33.675Z,85.06
2023-01-23T05:41:00.625Z,85.32
2023-01-23T05:44:02.764Z,85.23
2023-01-23T05:46:38.285Z,85.49
2023-01-23T05:49:06.829Z,85.86
2023-01-23T05:51:33.761Z,86.24
2023-01-23T05:54:02.033Z,86.45
2023-01-23T05:56:29.893Z,85.90
2023-01-23T05:59:19.347Z,85.20
2023-01-23T06:02:01.835Z,83.97
2023-01-23T06:04:59.237Z,85.08
2023-01-23T06:07:37.887Z,85.24
2023-01-23T06:10:10.011Z,85.55
2023-01-23T06:12:37.321Z,85.80
2023-01-23T06:15:05.929Z,85.73
2023-01-23T06:17:33.140Z,84.93
2023-01-23T06:20:01.469Z,85.67
2023-01-23T06:22:31.253Z,85.83
2023-01-23T06:25:11.612Z,85.15
2023-01-23T06:27:38.569Z,85.85
2023-01-23T06:30:10.048Z,85.70
2023-01-23T06:32:41.053Z,85.58
2023-01-23T06:35:10.615Z,85.44
2023-01-23T06:37:40.339Z,85.74
2023-01-23T06:40:10.787Z,85.82
2023-01-23T06:42:38.887Z,86.58
2023-01-23T06:45:07.712Z,86.25
2023-01-23T06:47:35.686Z,85.41
2023-01-23T06:50:04.526Z,85.21
2023-01-23T06:52:37.950Z,86.41
2023-01-23T06:55:06.804Z,85.87
2023-01-23T06:57:34.685Z,85.34
2023-01-23T07:00:03.359Z,85.51
2023-01-23T07:02:32.438Z,86.09
2023-01-23T07:04:59.634Z,86.76
2023-01-23T07:07:27.178Z,86.54
2023-01-23T07:09:55.497Z,87.02
2023-01-23T07:12:26.302Z,86.60
2023-01-23T07:14:53.241Z,85.77
2023-01-23T07:17:25.402Z,85.83
2023-01-23T07:19:52.541Z,85.76
2023-01-23T07:22:23.024Z,85.34
2023-01-23T07:24:49.789Z,85.49
2023-01-23T07:27:17.953Z,86.07
2023-01-23T07:29:44.931Z,86.44
2023-01-23T07:32:11.765Z,86.20
2023-01-23T07:34:38.737Z,85.71
2023-01-23T07:37:05.707Z,85.63
2023-01-23T07:39:33.128Z,85.56
2023-01-23T07:42:00.393Z,85.95
2023-01-23T07:44:30.415Z,85.49
2023-01-23T07:46:57.667Z,85.71
2023-01-23T07:49:25.392Z,86.02
2023-01-23T07:51:52.326Z,86.42
2023-01-23T07:54:19.336Z,86.66
2023-01-23T07:56:49.547Z,86.17
2023-01-23T07:59:16.894Z,86.14
2023-01-23T08:01:45.176Z,86.71
2023-01-23T08:04:12.202Z,86.74
2023-01-23T08:06:39.149Z,86.55
2023-01-23T08:09:06.143Z,86.22
2023-01-23T08:11:34.445Z,86.51
2023-01-23T08:14:01.381Z,86.14
2023-01-23T08:16:28.860Z,86.43
2023-01-23T08:18:58.398Z,86.43
2023-01-23T08:21:26.347Z,86.70
2023-01-23T08:23:53.163Z,86.57
2023-01-23T08:26:20.116Z,86.97
2023-01-23T08:28:47.074Z,86.75
2023-01-23T08:31:14.327Z,86.50
2023-01-23T08:33:41.409Z,85.85
2023-01-23T08:36:13.580Z,85.81
2023-01-23T08:38:40.652Z,86.14
2023-01-23T08:41:07.585Z,86.24
2023-01-23T08:43:34.352Z,86.42
2023-01-23T08:46:01.257Z,86.38
2023-01-23T08:48:28.433Z,86.10
2023-01-23T08:51:02.075Z,86.67
2023-01-23T08:53:32.239Z,87.03
2023-01-23T08:56:00.578Z,86.39
2023-01-23T08:58:27.841Z,86.20
2023-01-23T09:00:54.778Z,86.28
2023-01-23T09:03:22.095Z,86.53
2023-01-23T09:05:49.165Z,84.72
2023-01-23T09:08:16.208Z,84.76
2023-01-23T09:10:44.918Z,84.00
2023-01-23T09:13:12.223Z,83.43
2023-01-23T09:15:40.216Z,83.28
2023-01-23T09:18:07.506Z,82.22
2023-01-23T09:20:34.444Z,82.17
2023-01-23T09:23:01.433Z,82.44
2023-01-23T09:25:28.257Z,81.00
2023-01-23T09:27:56.661Z,80.54
2023-01-23T09:30:23.795Z,80.29
2023-01-23T09:32:50.885Z,80.21
2023-01-23T09:35:17.751Z,80.38
2023-01-23T09:37:44.555Z,80.13
2023-01-23T09:40:18.904Z,80.26
2023-01-23T09:42:46.875Z,79.11
2023-01-23T09:45:22.584Z,79.48
2023-01-23T09:47:56.822Z,79.58
2023-01-23T09:50:30.744Z,79.29
2023-01-23T09:53:05.730Z,78.72
2023-01-23T09:55:42.455Z,77.79
2023-01-23T09:58:20.513Z,77.88
2023-01-23T10:00:51.171Z,77.83
2023-01-23T10:03:19.977Z,77.96
2023-01-23T10:06:16.986Z,77.13
2023-01-23T10:09:18.418Z,77.60
2023-01-23T10:11:59.589Z,76.61
2023-01-23T10:15:19.748Z,77.02
2023-01-23T10:18:02.636Z,77.44
2023-01-23T10:21:03.127Z,76.68
2023-01-23T10:24:01.174Z,77.03
2023-01-23T10:26:31.859Z,76.33
2023-01-23T10:29:14.936Z,77.87
2023-01-23T10:31:50.191Z,76.99
2023-01-23T10:34:28.617Z,77.47
2023-01-23T10:37:11.184Z,76.30
2023-01-23T10:39:51.004Z,76.46
2023-01-23T10:42:22.494Z,77.57
2023-01-23T10:44:49.581Z,77.40
2023-01-23T10:47:32.843Z,76.79
2023-01-23T10:50:02.284Z,77.85
2023-01-23T10:52:34.912Z,76.88
2023-01-23T10:55:03.134Z,76.76
2023-01-23T10:57:44.080Z,76.21
2023-01-23T11:00:34.698Z,76.08
2023-01-23T11:03:26.975Z,76.03
2023-01-23T11:06:00.314Z,76.13
2023-01-23T11:08:30.226Z,75.96
2023-01-23T11:11:21.670Z,75.53
2023-01-23T11:13:51.547Z,75.93
2023-01-23T11:16:21.974Z,77.60
2023-01-23T11:19:02.910Z,76.29
2023-01-23T11:21:35.185Z,76.40
2023-01-23T11:24:16.803Z,76.70
2023-01-23T11:26:44.189Z,76.18
2023-01-23T11:29:22.794Z,76.80
2023-01-23T11:31:58.687Z,75.87
2023-01-23T11:34:33.874Z,75.03
2023-01-23T11:37:12.453Z,74.93
2023-01-23T11:39:53.832Z,75.09
2023-01-23T11:42:21.211Z,74.70
2023-01-23T11:44:48.233Z,74.33
2023-01-23T11:47:46.505Z,72.91
2023-01-23T11:50:30.055Z,72.78
2023-01-23T11:53:10.342Z,71.09
2023-01-23T11:56:03.976Z,71.66
2023-01-23T11:58:59.779Z,73.97
2023-01-23T12:01:36.930Z,74.00
2023-01-23T12:04:49.356Z,74.99
2023-01-23T12:07:21.680Z,74.09
2023-01-23T12:10:07.875Z,73.85
2023-01-23T12:12:58.883Z,75.75
2023-01-23T12:15:42.760Z,75.95
2023-01-23T12:18:30.075Z,76.25
2023-01-23T12:21:09.248Z,76.12
2023-01-23T12:23:59.740Z,76.22
2023-01-23T12:26:31.328Z,75.60
2023-01-23T12:29:45.764Z,75.37
2023-01-23T12:32:38.994Z,75.13
2023-01-23T12:35:26.987Z,75.35
2023-01-23T12:38:16.706Z,76.46
2023-01-23T12:40:52.869Z,76.29
2023-01-23T12:43:38.215Z,75.37
2023-01-23T12:46:13.798Z,75.53
2023-01-23T12:48:47.750Z,76.36
2023-01-23T12:51:20.949Z,75.25
2023-01-23T12:53:56.506Z,74.88
2023-01-23T12:56:28.945Z,76.25
2023-01-23T12:59:11.347Z,75.71
2023-01-23T13:01:58.058Z,75.85
2023-01-23T13:04:55.675Z,75.43
2023-01-23T13:07:48.071Z,76.20
2023-01-23T13:10:37.078Z,75.52
2023-01-23T13:13:04.126Z,76.16
2023-01-23T13:15:40.250Z,75.98
2023-01-23T13:18:24.706Z,75.73
2023-01-23T13:20:59.170Z,75.52
2023-01-23T13:23:30.411Z,76.32
2023-01-23T13:26:30.800Z,75.86
2023-01-23T13:29:02.749Z,76.14
2023-01-23T13:31:45.950Z,76.40
2023-01-23T13:34:38.704Z,75.90
2023-01-23T13:37:49.019Z,75.79
2023-01-23T13:40:22.379Z,75.30
2023-01-23T13:42:49.292Z,76.28
2023-01-23T13:45:26.332Z,75.76
2023-01-23T14:22:11.167Z,76.91
2023-01-23T14:24:46.008Z,77.47
2023-01-23T14:27:21.910Z,78.81
2023-01-23T14:29:57.594Z,78.16
2023-01-23T14:32:28.083Z,78.75
2023-01-23T14:34:54.894Z,79.26
2023-01-23T14:37:23.828Z,78.63
2023-01-23T14:39:53.858Z,79.11
2023-01-23T14:42:26.376Z,79.01
2023-01-23T14:44:56.924Z,79.78
2023-01-23T14:47:34.369Z,79.45
2023-01-23T14:50:08.289Z,78.94
2023-01-23T14:52:37.324Z,78.96
2023-01-23T14:55:29.238Z,79.66
2023-01-23T14:58:01.143Z,79.86
2023-01-23T15:00:30.235Z,79.57
2023-01-23T15:02:57.263Z,79.71
2023-01-23T15:05:27.258Z,79.26
2023-01-23T15:07:58.471Z,79.33
2023-01-23T15:10:29.710Z,79.31
2023-01-23T15:13:00.477Z,79.32
2023-01-23T15:15:29.089Z,79.33
2023-01-23T15:17:59.391Z,79.64
2023-01-23T15:20:35.068Z,79.02
2023-01-23T15:23:32.693Z,79.62
2023-01-23T15:26:31.838Z,79.63
2023-01-23T15:29:03.281Z,79.18
2023-01-23T15:31:36.745Z,79.34
2023-01-23T15:34:26.672Z,79.90
2023-01-23T15:36:59.848Z,80.00
2023-01-23T15:39:31.663Z,79.92
2023-01-23T15:42:01.246Z,80.35
2023-01-23T15:44:31.908Z,79.31
2023-01-23T15:46:58.942Z,79.85
2023-01-23T15:49:26.586Z,79.13
2023-01-23T15:51:56.506Z,79.50
2023-01-23T15:54:32.357Z,79.22
2023-01-23T15:57:07.424Z,79.23
2023-01-23T15:59:36.708Z,79.16
2023-01-23T16:02:04.224Z,79.90
2023-01-23T16:04:31.684Z,79.40
2023-01-23T16:07:05.075Z,79.27
2023-01-23T16:09:37.639Z,79.65
2023-01-23T16:12:05.649Z,79.64
2023-01-23T16:14:32.510Z,79.59
2023-01-23T16:17:11.493Z,79.76
2023-01-23T16:19:42.334Z,80.13
2023-01-23T16:22:15.508Z,80.17
2023-01-23T16:24:45.175Z,79.65
2023-01-23T16:27:18.599Z,79.49
2023-01-23T16:29:46.557Z,79.51
2023-01-23T16:32:13.476Z,79.60
2023-01-23T16:34:40.352Z,79.83
2023-01-23T16:37:15.455Z,80.23
2023-01-23T16:39:46.495Z,79.62
2023-01-23T16:42:23.445Z,79.85
2023-01-23T16:44:51.265Z,79.80
2023-01-23T16:47:18.294Z,79.67
2023-01-23T16:49:54.042Z,79.43
2023-01-23T16:52:25.232Z,79.37
2023-01-23T16:54:54.569Z,79.60
2023-01-23T16:57:21.721Z,79.43
2023-01-23T16:59:50.397Z,79.36
2023-01-23T17:02:23.160Z,79.00
2023-01-23T17:04:50.640Z,79.32
2023-01-23T17:07:20.124Z,79.16
2023-01-23T17:09:47.678Z,79.44
2023-01-23T17:12:20.264Z,79.50
2023-01-23T17:14:49.125Z,80.21
2023-01-23T17:17:27.754Z,80.29
2023-01-23T17:19:54.884Z,79.90
2023-01-23T17:22:25.826Z,79.56
2023-01-23T17:24:53.147Z,80.10
2023-01-23T17:27:21.357Z,80.37
2023-01-23T17:29:49.292Z,79.85
2023-01-23T17:32:29.014Z,79.94
2023-01-23T17:34:56.719Z,79.66
2023-01-23T17:37:26.214Z,79.50
2023-01-23T17:39:53.247Z,79.62
2023-01-23T17:42:21.396Z,79.67
2023-01-23T17:44:48.315Z,78.91
2023-01-23T17:47:15.930Z,79.21
2023-01-23T17:49:47.184Z,79.11
2023-01-23T17:52:14.010Z,79.91
2023-01-23T17:54:41.154Z,79.93
2023-01-23T17:57:08.398Z,78.82
2023-01-23T17:59:36.575Z,79.09
2023-01-23T18:02:17.811Z,78.90
2023-01-23T18:04:44.645Z,79.64
2023-01-23T18:07:11.856Z,79.07
2023-01-23T18:09:38.756Z,79.49
2023-01-23T18:12:06.432Z,78.67
2023-01-23T18:14:52.124Z,78.40
2023-01-23T18:17:32.459Z,78.62
2023-01-23T18:20:00.199Z,79.57
2023-01-23T18:22:27.839Z,78.88
2023-01-23T18:24:55.602Z,79.44
2023-01-23T18:27:25.976Z,79.51
2023-01-23T18:30:20.020Z,79.36
2023-01-23T18:33:17.564Z,78.59
2023-01-23T18:36:06.562Z,79.15
2023-01-23T18:38:43.776Z,79.46
2023-01-23T18:41:21.621Z,79.52
2023-01-23T18:43:55.898Z,79.35
2023-01-23T18:46:24.842Z,79.32
2023-01-23T18:48:52.435Z,79.38
2023-01-23T18:51:37.214Z,79.36
2023-01-23T18:54:23.654Z,79.83
2023-01-23T18:57:17.969Z,79.72
2023-01-23T19:00:00.439Z,79.74
2023-01-23T19:02:40.850Z,79.71
2023-01-23T19:05:26.201Z,79.58
2023-01-23T19:07:53.789Z,79.83
2023-01-23T19:10:24.504Z,80.12
2023-01-23T19:13:09.655Z,80.43
2023-01-23T19:15:48.118Z,79.60
2023-01-23T19:18:44.318Z,79.57
2023-01-23T19:21:21.335Z,80.03
2023-01-23T19:23:57.510Z,79.95
2023-01-23T19:26:27.066Z,79.54
2023-01-23T19:28:55.142Z,79.62
2023-01-23T19:31:25.503Z,79.81
2023-01-23T19:33:55.489Z,79.52
2023-01-23T19:36:23.796Z,79.63
2023-01-23T19:38:51.039Z,80.23
2023-01-23T19:41:21.753Z,80.39
2023-01-23T19:43:51.098Z,80.02
2023-01-23T19:46:19.004Z,80.58
2023-01-23T19:48:46.475Z,80.81
2023-01-23T19:51:18.959Z,80.55
2023-01-23T19:53:46.452Z,79.98
2023-01-23T19:56:16.810Z,79.84
2023-01-23T19:58:43.707Z,80.58
2023-01-23T20:01:23.435Z,80.61
2023-01-23T20:03:50.837Z,80.27
2023-01-23T20:06:19.186Z,80.20
2023-01-23T20:08:46.005Z,81.19
2023-01-23T20:11:13.149Z,80.46
2023-01-23T20:13:40.347Z,80.78
2023-01-23T20:16:10.222Z,80.37
2023-01-23T20:18:36.993Z,80.64
2023-01-23T20:21:04.189Z,80.05
2023-01-23T20:23:32.807Z,80.32
2023-01-23T20:26:01.224Z,80.92
2023-01-23T20:28:29.597Z,80.23
2023-01-23T20:30:57.419Z,80.14
2023-01-23T20:33:24.988Z,80.78
2023-01-23T20:35:53.176Z,80.74
2023-01-23T20:38:21.113Z,80.60
2023-01-23T20:40:49.525Z,80.44
2023-01-23T20:43:17.415Z,79.78
2023-01-23T20:45:48.922Z,80.48
2023-01-23T20:48:17.032Z,80.50
2023-01-23T20:50:44.754Z,80.16
2023-01-23T20:53:14.047Z,79.66
2023-01-23T20:55:40.804Z,80.44
2023-01-23T20:58:08.998Z,80.54
2023-01-23T21:00:35.884Z,80.89
2023-01-23T21:03:02.962Z,80.52
2023-01-23T21:05:29.768Z,79.71
2023-01-23T21:07:56.691Z,80.27
2023-01-23T21:10:23.431Z,79.91
2023-01-23T21:12:50.191Z,80.06
2023-01-23T21:15:18.884Z,80.38
2023-01-23T21:17:46.241Z,80.10
2023-01-23T21:20:13.041Z,80.75
2023-01-23T21:22:39.928Z,80.24
2023-01-23T21:25:07.256Z,80.45
2023-01-23T21:27:34.196Z,81.02
2023-01-23T21:30:01.055Z,80.28
2023-01-23T21:32:29.311Z,81.14
2023-01-23T21:34:56.137Z,80.71
2023-01-23T21:37:23.018Z,81.38
2023-01-23T21:39:51.563Z,80.73
2023-01-23T21:42:27.945Z,80.60
2023-01-23T21:44:54.966Z,81.08
2023-01-23T21:47:21.793Z,80.44
2023-01-23T21:49:50.051Z,80.42
2023-01-23T21:52:16.960Z,82.43
2023-01-23T21:54:44.261Z,79.85
2023-01-23T21:57:11.326Z,79.25
2023-01-23T21:59:38.284Z,79.05
2023-01-23T22:02:05.349Z,79.09
2023-01-23T22:04:32.303Z,79.71
2023-01-23T22:07:00.736Z,80.00
2023-01-23T22:09:27.786Z,80.68
2023-01-23T22:11:54.649Z,81.25
2023-01-23T22:14:21.724Z,81.25
2023-01-23T22:16:50.243Z,80.98
2023-01-23T22:19:23.338Z,80.65
2023-01-23T22:21:51.956Z,80.94
2023-01-23T22:24:20.225Z,80.89
2023-01-23T22:26:47.053Z,80.66
2023-01-23T22:29:14.111Z,80.51
2023-01-23T22:31:41.229Z,81.46
2023-01-23T22:34:08.269Z,81.16
2023-01-23T22:36:35.124Z,81.03
2023-01-23T22:39:02.016Z,82.02
2023-01-23T22:41:30.163Z,82.36
2023-01-23T22:43:57.587Z,81.42
2023-01-23T22:46:24.578Z,82.02
2023-01-23T22:48:51.688Z,81.13
2023-01-23T22:51:23.190Z,81.34
2023-01-23T22:53:52.160Z,81.23
2023-01-23T22:56:19.140Z,81.71
2023-01-23T22:58:49.157Z,81.15
2023-01-23T23:01:16.970Z,81.57
2023-01-23T23:03:45.128Z,81.18
2023-01-23T23:06:15.000Z,80.79
2023-01-23T23:08:43.709Z,80.84
2023-01-23T23:11:14.029Z,80.97
2023-01-23T23:13:41.470Z,81.46
2023-01-23T23:16:13.901Z,81.26
2023-01-23T23:18:41.234Z,80.97
2023-01-23T23:21:12.257Z,81.27
2023-01-23T23:23:39.812Z,80.67
2023-01-23T23:26:09.176Z,80.82
2023-01-23T23:28:38.070Z,80.32
2023-01-23T23:31:07.662Z,80.95
2023-01-23T23:33:37.031Z,80.96
2023-01-23T23:36:04.111Z,81.05
2023-01-23T23:38:31.104Z,81.28
2023-01-23T23:41:01.394Z,81.28
2023-01-23T23:43:29.130Z,81.02
2023-01-23T23:45:58.730Z,81.28
2023-01-23T23:48:27.002Z,81.48
2023-01-23T23:50:55.349Z,81.63
2023-01-23T23:53:22.762Z,81.03
2023-01-23T23:55:50.244Z,80.73
2023-01-23T23:58:17.135Z,81.12
